Главная страница
METAR-TAF:

METAR-TAF

Аэропорты :

Абердин, Мэриленд, США

широта: 39-28N, долгота: 076-10W, высота над уровнем моря: 18 м

Текущие метеонаблюдения

Эта сводка был подготовлена 2 часа и 3 минут назад, в 19:53 UTC
Ветер 14 Узел от южный
Температура 7°C
Влажность 66%
Давление 1020 hPa
Видимость: 11.3 км
Рассеянная облачность на высоте 6000 фута
Сплошная облачность на высоте 15000 фута

METAR: KAPG 231953Z 18014KT 7SM BKN060 OVC150 07/01 A3012 RMK SLP203

Время: 16:56 (21:56 UTC)


TAF: отсутствует

Метеонаблюдения и прогнозы для более 4000 аэропортов (сводки METAR и TAF).

Имеющиеся станции представлены на карте желтыми и красными точками.

Чтобы увидеть название станции, наведите на нее мышь.

Затем щелкните, чтобы увидеть метеонаблюдения и метеопрогнозы.

Управление картой: чтобы увеличить масштаб, щелкните зеленые кнопки с черным крестиком; чтобы уменьшить масштаб, щелкните зеленую кнопку с тире; для просмотра соседних карт щелкайте зеленые стрелки.


METAR-TAF: